createdAt,value
2022-09-27T00:00:37.357Z,10.60
2022-09-27T00:03:04.701Z,10.60
2022-09-27T00:05:31.838Z,10.60
2022-09-27T00:07:58.739Z,10.60
2022-09-27T00:10:25.885Z,10.60
2022-09-27T00:12:52.901Z,10.70
2022-09-27T00:15:20.767Z,10.60
2022-09-27T00:17:51.831Z,10.60
2022-09-27T00:20:20.675Z,10.60
2022-09-27T00:22:48.536Z,10.70
2022-09-27T00:25:16.070Z,10.60
2022-09-27T00:27:43.464Z,10.60
2022-09-27T00:30:11.416Z,10.60
2022-09-27T00:32:38.283Z,10.70
2022-09-27T00:35:05.422Z,10.60
2022-09-27T00:37:32.700Z,10.60
2022-09-27T00:40:00.020Z,10.60
2022-09-27T00:42:26.843Z,10.60
2022-09-27T00:45:08.129Z,10.60
2022-09-27T00:47:47.574Z,10.60
2022-09-27T00:50:20.592Z,10.60
2022-09-27T00:53:12.539Z,10.60
2022-09-27T00:55:48.682Z,10.50
2022-09-27T00:58:18.756Z,10.50
2022-09-27T01:00:51.001Z,10.60
2022-09-27T01:03:42.956Z,10.60
2022-09-27T01:06:11.159Z,10.50
2022-09-27T01:08:38.189Z,10.50
2022-09-27T01:11:14.158Z,10.50
2022-09-27T01:13:51.700Z,10.60
2022-09-27T01:16:27.236Z,10.60
2022-09-27T01:19:24.935Z,10.50
2022-09-27T01:22:08.062Z,10.50
2022-09-27T01:24:54.909Z,10.60
2022-09-27T01:27:57.123Z,10.50
2022-09-27T01:30:33.590Z,10.50
2022-09-27T01:33:19.411Z,10.60
2022-09-27T01:36:14.021Z,10.60
2022-09-27T01:39:08.299Z,10.50
2022-09-27T01:42:22.218Z,10.50
2022-09-27T01:45:18.521Z,10.50
2022-09-27T01:47:59.526Z,10.40
2022-09-27T01:50:53.955Z,10.50
2022-09-27T01:53:31.497Z,10.50
2022-09-27T01:56:22.494Z,10.50
2022-09-27T01:59:01.706Z,10.50
2022-09-27T02:01:32.561Z,10.50
2022-09-27T02:04:02.863Z,10.50
2022-09-27T02:06:53.283Z,10.60
2022-09-27T02:09:37.069Z,10.60
2022-09-27T02:12:15.456Z,10.60
2022-09-27T02:15:12.607Z,10.60
2022-09-27T02:17:49.975Z,10.60
2022-09-27T02:20:29.201Z,10.60
2022-09-27T02:23:14.676Z,10.70
2022-09-27T02:26:06.265Z,10.60
2022-09-27T02:28:42.310Z,10.60
2022-09-27T02:31:11.552Z,10.60
2022-09-27T02:33:46.742Z,10.70
2022-09-27T02:36:13.771Z,10.70
2022-09-27T02:38:41.037Z,10.70
2022-09-27T02:41:19.704Z,10.70
2022-09-27T02:43:53.836Z,10.80
2022-09-27T02:46:37.651Z,10.70
2022-09-27T02:49:29.582Z,10.70
2022-09-27T02:52:41.148Z,10.70
2022-09-27T02:55:20.663Z,10.70
2022-09-27T02:58:00.458Z,10.70
2022-09-27T03:01:05.946Z,10.70
2022-09-27T03:04:00.171Z,10.70
2022-09-27T03:06:29.251Z,10.70
2022-09-27T03:08:56.992Z,10.70
2022-09-27T03:11:24.194Z,10.70
2022-09-27T03:14:08.018Z,10.70
2022-09-27T03:16:40.599Z,10.60
2022-09-27T03:19:28.187Z,10.60
2022-09-27T03:22:21.644Z,10.60
2022-09-27T03:24:49.243Z,10.60
2022-09-27T03:27:16.183Z,10.60
2022-09-27T03:29:42.963Z,10.50
2022-09-27T03:32:11.171Z,10.50
2022-09-27T03:34:49.606Z,10.50
2022-09-27T03:37:16.684Z,10.50
2022-09-27T03:39:43.558Z,10.40
2022-09-27T03:42:10.335Z,10.40
2022-09-27T03:44:41.690Z,10.40
2022-09-27T03:47:09.438Z,10.40
2022-09-27T03:49:38.122Z,10.40
2022-09-27T03:52:05.569Z,10.40
2022-09-27T03:54:33.186Z,10.40
2022-09-27T03:57:00.326Z,10.40
2022-09-27T03:59:27.075Z,10.30
2022-09-27T04:02:12.335Z,10.30
2022-09-27T04:04:58.057Z,10.30
2022-09-27T04:07:26.082Z,10.30
2022-09-27T04:09:52.928Z,10.20
2022-09-27T04:12:21.211Z,10.30
2022-09-27T04:14:48.260Z,10.20
2022-09-27T04:17:53.036Z,10.20
2022-09-27T04:20:36.809Z,10.20
2022-09-27T04:23:09.848Z,10.20
2022-09-27T04:25:40.095Z,10.10
2022-09-27T04:28:19.258Z,10.10
2022-09-27T04:30:46.689Z,10.10
2022-09-27T04:33:13.880Z,10.10
2022-09-27T04:36:26.849Z,10.00
2022-09-27T04:39:09.725Z,10.00
2022-09-27T04:41:40.069Z,10.00
2022-09-27T04:44:07.283Z,9.90
2022-09-27T04:46:34.904Z,9.90
2022-09-27T04:49:02.606Z,9.90
2022-09-27T04:51:31.311Z,9.90
2022-09-27T04:53:58.549Z,9.80
2022-09-27T04:56:29.394Z,9.80
2022-09-27T04:58:56.325Z,9.70
2022-09-27T05:01:23.313Z,9.70
2022-09-27T05:04:09.270Z,9.70
2022-09-27T05:06:39.416Z,9.70
2022-09-27T05:09:15.889Z,9.70
2022-09-27T05:11:49.088Z,9.70
2022-09-27T05:14:15.828Z,9.70
2022-09-27T05:17:09.946Z,9.70
2022-09-27T05:20:07.071Z,9.70
2022-09-27T05:22:44.101Z,9.60
2022-09-27T05:25:12.869Z,9.60
2022-09-27T05:27:40.995Z,9.70
2022-09-27T05:30:08.303Z,9.60
2022-09-27T05:32:44.614Z,9.70
2022-09-27T05:35:47.481Z,9.70
2022-09-27T05:38:14.511Z,9.70
2022-09-27T05:40:47.649Z,9.80
2022-09-27T05:43:15.245Z,9.80
2022-09-27T05:45:44.348Z,9.80
2022-09-27T05:48:14.094Z,9.80
2022-09-27T05:50:52.493Z,9.80
2022-09-27T05:53:19.259Z,9.70
2022-09-27T05:55:46.806Z,9.70
2022-09-27T05:58:16.112Z,9.80
2022-09-27T06:00:54.809Z,9.90
2022-09-27T06:03:51.346Z,9.90
2022-09-27T06:06:38.467Z,10.00
2022-09-27T06:09:14.394Z,10.00
2022-09-27T06:11:44.512Z,10.10
2022-09-27T06:14:14.606Z,10.10
2022-09-27T06:16:59.420Z,10.10
2022-09-27T06:19:29.324Z,10.20
2022-09-27T06:21:56.959Z,10.20
2022-09-27T06:24:27.675Z,10.30
2022-09-27T06:26:54.587Z,10.30
2022-09-27T06:29:35.648Z,10.40
2022-09-27T06:32:04.641Z,10.40
2022-09-27T06:34:46.793Z,10.40
2022-09-27T06:37:13.524Z,10.40
2022-09-27T06:39:40.712Z,10.40
2022-09-27T06:42:33.793Z,10.40
2022-09-27T06:45:10.971Z,10.40
2022-09-27T06:47:40.863Z,10.40
2022-09-27T06:50:24.641Z,10.40
2022-09-27T06:52:51.693Z,10.50
2022-09-27T06:55:19.698Z,10.40
2022-09-27T06:58:05.153Z,10.40
2022-09-27T07:00:32.062Z,10.50
2022-09-27T07:03:18.192Z,10.60
2022-09-27T07:06:25.198Z,10.60
2022-09-27T07:09:00.139Z,10.60
2022-09-27T07:11:27.906Z,10.60
2022-09-27T07:13:56.396Z,10.60
2022-09-27T07:16:23.197Z,10.70
2022-09-27T07:18:50.423Z,10.70
2022-09-27T07:21:17.554Z,10.80
2022-09-27T07:23:44.932Z,10.90
2022-09-27T07:26:14.048Z,11.00
2022-09-27T07:28:44.974Z,11.10
2022-09-27T07:31:15.701Z,11.20
2022-09-27T07:33:43.582Z,11.40
2022-09-27T07:36:12.638Z,11.60
2022-09-27T07:38:42.708Z,11.70
2022-09-27T07:41:14.045Z,11.80
2022-09-27T07:43:44.017Z,12.10
2022-09-27T07:46:12.238Z,12.30
2022-09-27T07:48:56.855Z,12.40
2022-09-27T07:51:42.523Z,12.70
2022-09-27T07:54:25.476Z,12.80
2022-09-27T07:57:13.806Z,13.00
2022-09-27T07:59:49.744Z,13.20
2022-09-27T08:02:19.185Z,13.00
2022-09-27T08:04:48.177Z,13.20
2022-09-27T08:07:15.707Z,13.50
2022-09-27T08:09:45.851Z,13.70
2022-09-27T08:12:13.478Z,13.90
2022-09-27T08:14:44.988Z,14.00
2022-09-27T08:17:15.444Z,13.90
2022-09-27T08:20:06.378Z,14.00
2022-09-27T08:22:59.328Z,14.30
2022-09-27T08:25:32.348Z,14.20
2022-09-27T08:28:04.866Z,14.20
2022-09-27T08:30:44.821Z,14.40
2022-09-27T08:33:11.774Z,15.10
2022-09-27T08:35:38.588Z,15.50
2022-09-27T08:38:06.604Z,16.00
2022-09-27T08:40:57.606Z,17.40
2022-09-27T08:43:52.716Z,17.90
2022-09-27T08:46:43.732Z,18.50
2022-09-27T08:49:33.339Z,18.40
2022-09-27T08:52:01.175Z,18.00
2022-09-27T08:54:32.745Z,17.80
2022-09-27T08:57:07.113Z,17.00
2022-09-27T08:59:53.572Z,17.30
2022-09-27T09:02:24.714Z,18.40
2022-09-27T09:05:00.627Z,19.20
2022-09-27T09:07:54.830Z,20.40
2022-09-27T09:11:12.671Z,21.00
2022-09-27T09:14:01.155Z,20.80
2022-09-27T09:16:47.277Z,21.00
2022-09-27T09:19:23.050Z,20.20
2022-09-27T09:22:18.821Z,18.60
2022-09-27T09:24:51.447Z,18.10
2022-09-27T09:27:51.559Z,18.80
2022-09-27T09:30:29.309Z,18.60
2022-09-27T09:33:25.442Z,18.10
2022-09-27T09:36:04.142Z,17.00
2022-09-27T09:38:50.757Z,16.50
2022-09-27T09:41:52.471Z,16.30
2022-09-27T09:44:26.177Z,16.70
2022-09-27T09:46:57.553Z,17.10
2022-09-27T09:49:33.544Z,17.20
2022-09-27T09:52:09.021Z,16.90
2022-09-27T09:55:06.359Z,16.90
2022-09-27T09:58:06.234Z,17.10
2022-09-27T10:00:43.277Z,17.20
2022-09-27T10:03:10.266Z,18.00
2022-09-27T10:05:37.364Z,18.10
2022-09-27T10:08:16.478Z,18.20
2022-09-27T10:10:43.667Z,17.50
2022-09-27T10:13:42.350Z,16.60
2022-09-27T10:16:11.090Z,16.10
2022-09-27T10:18:44.079Z,15.90
2022-09-27T10:21:18.028Z,15.60
2022-09-27T10:24:17.783Z,15.60
2022-09-27T10:27:06.687Z,15.70
2022-09-27T10:29:38.936Z,15.70
2022-09-27T10:32:26.199Z,16.10
2022-09-27T10:35:23.713Z,16.80
2022-09-27T10:37:51.397Z,17.00
2022-09-27T10:40:31.263Z,16.50
2022-09-27T10:42:59.683Z,17.20
2022-09-27T10:45:42.364Z,17.80
2022-09-27T10:48:24.771Z,18.90
2022-09-27T10:51:05.174Z,18.80
2022-09-27T10:53:37.845Z,18.30
2022-09-27T10:56:27.940Z,18.30
2022-09-27T10:58:56.036Z,18.70
2022-09-27T11:01:26.155Z,19.70
2022-09-27T11:04:33.051Z,20.50
2022-09-27T11:07:19.965Z,20.70
2022-09-27T11:10:03.061Z,20.50
2022-09-27T11:12:32.099Z,20.90
2022-09-27T11:15:07.521Z,20.90
2022-09-27T11:17:45.251Z,20.50
2022-09-27T11:20:32.979Z,19.80
2022-09-27T11:23:18.399Z,19.40
2022-09-27T11:26:07.870Z,19.10
2022-09-27T11:28:47.161Z,18.80
2022-09-27T11:31:34.029Z,18.90
2022-09-27T11:34:18.910Z,18.80
2022-09-27T11:36:57.716Z,19.30
2022-09-27T11:39:51.011Z,19.60
2022-09-27T11:42:51.564Z,18.90
2022-09-27T11:48:58.460Z,18.20
2022-09-27T11:51:44.371Z,18.20
2022-09-27T11:54:24.966Z,17.90
2022-09-27T11:57:18.819Z,17.60
2022-09-27T12:00:01.508Z,17.30
2022-09-27T12:02:54.662Z,17.50
2022-09-27T12:05:41.096Z,17.60
2022-09-27T12:08:23.369Z,17.60
2022-09-27T12:11:09.983Z,17.80
2022-09-27T12:13:58.182Z,17.50
2022-09-27T12:16:27.808Z,17.20
2022-09-27T12:18:58.203Z,16.70
2022-09-27T12:21:46.987Z,16.50
2022-09-27T12:24:21.660Z,16.10
2022-09-27T12:27:34.966Z,15.90
2022-09-27T12:30:04.516Z,15.40
2022-09-27T12:32:38.735Z,15.20
2022-09-27T12:35:11.597Z,15.20
2022-09-27T12:38:05.603Z,15.50
2022-09-27T12:40:42.673Z,15.50
2022-09-27T12:43:17.599Z,15.70
2022-09-27T12:46:10.858Z,15.70
2022-09-27T12:49:05.331Z,15.60
2022-09-27T12:51:37.601Z,15.50
2022-09-27T12:54:50.335Z,15.50
2022-09-27T12:57:32.010Z,15.70
2022-09-27T13:00:16.642Z,15.30
2022-09-27T13:03:17.176Z,14.90
2022-09-27T13:06:14.681Z,14.50
2022-09-27T13:09:07.983Z,14.40
2022-09-27T13:11:52.771Z,14.10
2022-09-27T13:14:23.994Z,14.10
2022-09-27T13:16:51.606Z,13.80
2022-09-27T13:19:36.239Z,13.60
2022-09-27T13:22:08.723Z,13.40
2022-09-27T13:25:43.363Z,13.30
2022-09-27T13:28:36.368Z,13.20
2022-09-27T13:31:16.171Z,13.30
2022-09-27T13:33:52.366Z,13.40
2022-09-27T13:36:31.560Z,13.30
2022-09-27T13:39:06.583Z,13.40
2022-09-27T13:41:49.886Z,13.50
2022-09-27T13:44:43.074Z,13.50
2022-09-27T13:47:36.229Z,13.50
2022-09-27T13:50:26.128Z,13.50
2022-09-27T13:53:18.093Z,13.70
2022-09-27T13:55:46.206Z,14.10
2022-09-27T13:58:44.308Z,14.50
2022-09-27T14:01:36.178Z,14.60
2022-09-27T14:04:14.514Z,14.70
2022-09-27T14:06:48.963Z,14.90
2022-09-27T14:09:21.617Z,15.10
2022-09-27T14:12:05.781Z,15.30
2022-09-27T14:14:33.527Z,15.20
2022-09-27T14:17:02.022Z,15.30
2022-09-27T14:19:29.628Z,15.00
2022-09-27T14:22:06.407Z,14.80
2022-09-27T14:24:38.837Z,14.70
2022-09-27T14:27:29.335Z,14.70
2022-09-27T14:30:17.866Z,14.90
2022-09-27T14:32:53.901Z,14.90
2022-09-27T14:35:48.728Z,15.10
2022-09-27T14:38:38.033Z,15.10
2022-09-27T14:41:11.104Z,15.30
2022-09-27T14:43:44.410Z,16.30
2022-09-27T14:46:29.875Z,16.90
2022-09-27T14:48:57.020Z,17.40
2022-09-27T14:51:30.575Z,17.10
2022-09-27T14:54:01.224Z,16.60
2022-09-27T14:56:37.714Z,16.20
2022-09-27T14:59:11.391Z,16.10
2022-09-27T15:01:39.977Z,15.70
2022-09-27T15:04:11.612Z,15.20
2022-09-27T15:06:38.962Z,14.90
2022-09-27T15:09:07.141Z,14.70
2022-09-27T15:11:34.772Z,14.30
2022-09-27T15:14:03.774Z,14.00
2022-09-27T15:16:31.486Z,13.60
2022-09-27T15:19:05.762Z,13.40
2022-09-27T15:21:37.432Z,13.30
2022-09-27T15:24:05.130Z,12.90
2022-09-27T15:26:37.375Z,12.70
2022-09-27T15:29:04.914Z,12.50
2022-09-27T15:31:34.629Z,12.40
2022-09-27T15:34:02.511Z,12.40
2022-09-27T15:36:47.363Z,12.30
2022-09-27T15:39:27.956Z,12.20
2022-09-27T15:42:06.682Z,12.10
2022-09-27T15:44:43.239Z,12.10
2022-09-27T15:47:31.915Z,12.00
2022-09-27T15:49:59.554Z,12.00
2022-09-27T15:52:52.271Z,11.90
2022-09-27T15:55:21.320Z,11.80
2022-09-27T15:57:51.096Z,11.70
2022-09-27T16:00:20.587Z,11.80
2022-09-27T16:02:47.391Z,11.80
2022-09-27T16:05:14.208Z,11.80
2022-09-27T16:07:41.184Z,11.80
2022-09-27T16:10:14.079Z,11.80
2022-09-27T16:12:41.564Z,11.70
2022-09-27T16:15:09.233Z,11.80
2022-09-27T16:17:38.384Z,11.80
2022-09-27T16:20:06.409Z,11.70
2022-09-27T16:22:33.444Z,11.60
2022-09-27T16:25:00.135Z,11.60
2022-09-27T16:27:27.390Z,11.60
2022-09-27T16:29:54.511Z,11.60
2022-09-27T16:32:21.554Z,11.70
2022-09-27T16:34:48.423Z,11.70
2022-09-27T16:37:15.341Z,11.70
2022-09-27T16:39:44.574Z,11.70
2022-09-27T16:42:15.210Z,11.70
2022-09-27T16:44:41.920Z,11.70
2022-09-27T16:47:09.368Z,11.70
2022-09-27T16:49:55.018Z,11.50
2022-09-27T16:52:21.793Z,11.40
2022-09-27T16:54:48.511Z,11.40
2022-09-27T16:57:15.380Z,11.30
2022-09-27T16:59:42.146Z,11.20
2022-09-27T17:02:09.828Z,11.20
2022-09-27T17:04:36.569Z,11.20
2022-09-27T17:07:03.444Z,11.20
2022-09-27T17:09:30.124Z,11.20
2022-09-27T17:11:56.818Z,11.20
2022-09-27T17:14:23.840Z,11.20
2022-09-27T17:16:51.273Z,11.20
2022-09-27T17:19:18.622Z,11.10
2022-09-27T17:21:46.363Z,11.10
2022-09-27T17:24:13.325Z,11.10
2022-09-27T17:26:40.422Z,11.00
2022-09-27T17:29:08.265Z,11.00
2022-09-27T17:31:37.191Z,11.00
2022-09-27T17:34:05.086Z,11.00
2022-09-27T17:36:34.940Z,11.00
2022-09-27T17:39:03.169Z,11.00
2022-09-27T17:41:30.885Z,11.00
2022-09-27T17:43:59.828Z,11.10
2022-09-27T17:46:29.730Z,11.10
2022-09-27T17:49:15.768Z,11.10
2022-09-27T17:51:45.853Z,11.00
2022-09-27T17:54:12.691Z,11.00
2022-09-27T17:56:42.116Z,11.10
2022-09-27T17:59:10.467Z,11.00
2022-09-27T18:01:38.772Z,11.00
2022-09-27T18:04:11.479Z,11.10
2022-09-27T18:06:40.824Z,11.10
2022-09-27T18:09:09.195Z,11.10
2022-09-27T18:11:37.044Z,11.00
2022-09-27T18:14:04.694Z,11.00
2022-09-27T18:16:36.663Z,11.00
2022-09-27T18:19:06.216Z,11.00
2022-09-27T18:21:32.934Z,10.90
2022-09-27T18:24:02.878Z,10.90
2022-09-27T18:26:29.744Z,10.80
2022-09-27T18:29:01.984Z,10.90
2022-09-27T18:31:28.841Z,11.00
2022-09-27T18:33:55.617Z,10.90
2022-09-27T18:36:25.230Z,10.90
2022-09-27T18:38:57.063Z,10.80
2022-09-27T18:41:25.996Z,10.90
2022-09-27T18:43:56.999Z,10.90
2022-09-27T18:46:41.292Z,10.90
2022-09-27T18:49:11.300Z,10.80
2022-09-27T18:51:41.854Z,10.70
2022-09-27T18:54:16.988Z,10.60
2022-09-27T18:56:44.468Z,10.50
2022-09-27T18:59:12.267Z,10.50
2022-09-27T19:01:45.371Z,10.50
2022-09-27T19:04:23.694Z,10.40
2022-09-27T19:06:55.293Z,10.40
2022-09-27T19:09:22.854Z,10.30
2022-09-27T19:11:50.005Z,10.30
2022-09-27T19:14:20.709Z,10.20
2022-09-27T19:16:49.380Z,10.20
2022-09-27T19:19:18.100Z,10.10
2022-09-27T19:21:45.674Z,10.10
2022-09-27T19:24:14.462Z,10.00
2022-09-27T19:26:42.134Z,9.90
2022-09-27T19:29:09.510Z,10.00
2022-09-27T19:31:36.743Z,9.90
2022-09-27T19:34:04.891Z,9.80
2022-09-27T19:36:31.784Z,9.80
2022-09-27T19:38:58.801Z,9.70
2022-09-27T19:41:26.165Z,9.70
2022-09-27T19:43:54.277Z,9.70
2022-09-27T19:46:22.218Z,9.70
2022-09-27T19:48:50.365Z,9.70
2022-09-27T19:51:23.278Z,9.70
2022-09-27T19:53:50.931Z,9.60
2022-09-27T19:56:20.524Z,9.50
2022-09-27T19:58:47.706Z,9.40
2022-09-27T20:01:22.127Z,9.40
2022-09-27T20:03:50.588Z,9.30
2022-09-27T20:06:19.872Z,9.20
2022-09-27T20:08:47.992Z,9.20
2022-09-27T20:11:17.579Z,9.10
2022-09-27T20:13:44.927Z,9.10
2022-09-27T20:16:20.347Z,9.00
2022-09-27T20:18:50.688Z,9.00
2022-09-27T20:21:18.943Z,9.00
2022-09-27T20:23:49.768Z,8.90
2022-09-27T20:26:18.785Z,8.90
2022-09-27T20:28:48.024Z,8.90
2022-09-27T20:31:17.661Z,8.90
2022-09-27T20:33:46.475Z,8.80
2022-09-27T20:36:17.584Z,8.80
2022-09-27T20:38:49.330Z,8.90
2022-09-27T20:41:19.542Z,8.80
2022-09-27T20:43:47.250Z,8.90
2022-09-27T20:46:16.817Z,8.90
2022-09-27T20:48:45.104Z,8.90
2022-09-27T20:51:15.989Z,8.80
2022-09-27T20:53:45.145Z,8.80
2022-09-27T20:56:30.074Z,8.70
2022-09-27T20:58:59.669Z,8.70
2022-09-27T21:01:28.465Z,8.70
2022-09-27T21:03:57.335Z,8.70
2022-09-27T21:06:24.363Z,8.60
2022-09-27T21:08:51.466Z,8.60
2022-09-27T21:11:19.846Z,8.60
2022-09-27T21:13:47.708Z,8.60
2022-09-27T21:16:25.964Z,8.60
2022-09-27T21:18:54.296Z,8.70
2022-09-27T21:21:22.441Z,8.60
2022-09-27T21:23:54.966Z,8.60
2022-09-27T21:26:24.376Z,8.60
2022-09-27T21:28:53.208Z,8.60
2022-09-27T21:31:23.118Z,8.60
2022-09-27T21:33:59.189Z,8.60
2022-09-27T21:36:28.794Z,8.60
2022-09-27T21:38:56.205Z,8.50
2022-09-27T21:41:23.871Z,8.40
2022-09-27T21:43:50.714Z,8.40
2022-09-27T21:46:26.087Z,8.40
2022-09-27T21:48:57.962Z,8.30
2022-09-27T21:51:30.572Z,8.30
2022-09-27T21:54:01.761Z,8.30
2022-09-27T21:56:34.895Z,8.30
2022-09-27T21:59:01.910Z,8.30
2022-09-27T22:01:29.614Z,8.30
2022-09-27T22:03:57.651Z,8.30
2022-09-27T22:06:27.035Z,8.30
2022-09-27T22:08:55.259Z,8.40
2022-09-27T22:11:24.235Z,8.40
2022-09-27T22:13:51.244Z,8.40
2022-09-27T22:16:19.197Z,8.40
2022-09-27T22:18:47.614Z,8.50
2022-09-27T22:21:38.761Z,8.50
2022-09-27T22:24:08.516Z,8.60
2022-09-27T22:26:39.343Z,8.60
2022-09-27T22:29:07.655Z,8.60
2022-09-27T22:31:35.875Z,8.70
2022-09-27T22:34:05.648Z,8.80
2022-09-27T22:36:33.549Z,8.70
2022-09-27T22:39:00.702Z,8.80
2022-09-27T22:41:29.314Z,8.80
2022-09-27T22:43:56.259Z,8.80
2022-09-27T22:46:23.031Z,8.80
2022-09-27T22:48:50.136Z,8.80
2022-09-27T22:51:17.791Z,8.80
2022-09-27T22:53:44.777Z,8.90
2022-09-27T22:56:16.208Z,8.90
2022-09-27T22:58:43.954Z,8.90
2022-09-27T23:01:16.468Z,8.90
2022-09-27T23:03:43.824Z,9.00
2022-09-27T23:06:10.961Z,9.00
2022-09-27T23:08:38.524Z,9.00
2022-09-27T23:11:11.196Z,9.10
2022-09-27T23:13:41.208Z,9.10
2022-09-27T23:16:16.086Z,9.10
2022-09-27T23:18:44.361Z,9.10
2022-09-27T23:21:14.029Z,9.20
2022-09-27T23:23:44.702Z,9.20
2022-09-27T23:26:13.665Z,9.30
2022-09-27T23:28:41.309Z,9.30
2022-09-27T23:31:13.785Z,9.30
2022-09-27T23:33:46.187Z,9.30
2022-09-27T23:36:16.092Z,9.40
2022-09-27T23:38:45.477Z,9.40
2022-09-27T23:41:13.307Z,9.30
2022-09-27T23:43:40.062Z,9.30
2022-09-27T23:46:08.493Z,9.20
2022-09-27T23:48:36.175Z,9.20
2022-09-27T23:51:04.683Z,9.20
2022-09-27T23:53:31.763Z,9.10
2022-09-27T23:56:15.160Z,9.10
2022-09-27T23:58:44.217Z,9.10
